createdAt,value
2022-12-25T00:01:53.468Z,71.00
2022-12-25T00:04:21.736Z,71.10
2022-12-25T00:06:50.044Z,70.90
2022-12-25T00:09:18.570Z,70.90
2022-12-25T00:11:46.985Z,71.10
2022-12-25T00:14:15.886Z,71.00
2022-12-25T00:16:44.302Z,71.10
2022-12-25T00:19:14.021Z,71.10
2022-12-25T00:21:42.457Z,71.20
2022-12-25T00:24:10.897Z,71.20
2022-12-25T00:26:40.354Z,71.10
2022-12-25T00:29:08.641Z,71.20
2022-12-25T00:31:37.215Z,71.20
2022-12-25T00:34:05.773Z,71.20
2022-12-25T00:36:41.339Z,71.20
2022-12-25T00:39:10.368Z,71.10
2022-12-25T00:41:55.983Z,71.10
2022-12-25T00:44:25.236Z,71.20
2022-12-25T00:46:53.933Z,71.10
2022-12-25T00:49:22.440Z,71.00
2022-12-25T00:51:52.447Z,71.20
2022-12-25T00:54:21.900Z,71.10
2022-12-25T00:56:50.218Z,71.20
2022-12-25T00:59:18.615Z,71.00
2022-12-25T01:01:46.940Z,70.90
2022-12-25T01:04:15.423Z,71.00
2022-12-25T01:06:43.690Z,71.00
2022-12-25T01:09:31.268Z,71.00
2022-12-25T01:12:00.530Z,71.10
2022-12-25T01:14:29.210Z,71.00
2022-12-25T01:16:57.440Z,71.00
2022-12-25T01:19:25.868Z,71.00
2022-12-25T01:21:55.126Z,70.90
2022-12-25T01:24:24.787Z,70.80
2022-12-25T01:26:54.336Z,70.80
2022-12-25T01:29:22.700Z,70.90
2022-12-25T01:31:51.678Z,71.00
2022-12-25T01:34:19.981Z,71.00
2022-12-25T01:36:51.062Z,71.10
2022-12-25T01:39:19.710Z,71.00
2022-12-25T01:41:49.674Z,71.00
2022-12-25T01:44:56.062Z,71.20
2022-12-25T01:47:25.720Z,71.00
2022-12-25T01:49:53.981Z,70.90
2022-12-25T01:52:24.978Z,70.90
2022-12-25T01:54:57.115Z,71.00
2022-12-25T01:57:30.391Z,71.00
2022-12-25T02:00:01.095Z,71.00
2022-12-25T02:02:30.150Z,71.10
2022-12-25T02:05:02.848Z,71.00
2022-12-25T02:07:35.745Z,71.00
2022-12-25T02:10:04.455Z,71.10
2022-12-25T02:12:35.616Z,71.10
2022-12-25T02:15:09.060Z,71.00
2022-12-25T02:17:43.772Z,71.00
2022-12-25T02:20:32.936Z,71.10
2022-12-25T02:23:14.642Z,71.10
2022-12-25T02:25:55.788Z,71.00
2022-12-25T02:28:29.281Z,71.00
2022-12-25T02:31:02.394Z,71.10
2022-12-25T02:33:54.378Z,71.10
2022-12-25T02:36:28.875Z,71.10
2022-12-25T02:39:23.764Z,71.10
2022-12-25T02:41:54.873Z,71.20
2022-12-25T02:44:44.442Z,71.10
2022-12-25T02:47:30.442Z,71.20
2022-12-25T02:50:18.800Z,71.20
2022-12-25T02:53:05.629Z,71.20
2022-12-25T02:55:55.907Z,71.20
2022-12-25T02:58:44.355Z,71.20
2022-12-25T03:01:36.262Z,71.30
2022-12-25T03:04:26.526Z,71.10
2022-12-25T03:07:03.499Z,71.20
2022-12-25T03:09:55.187Z,71.00
2022-12-25T03:12:30.743Z,71.10
2022-12-25T03:15:16.688Z,71.20
2022-12-25T03:17:46.672Z,71.30
2022-12-25T03:20:32.817Z,71.20
2022-12-25T03:23:19.369Z,71.30
2022-12-25T03:26:05.259Z,71.10
2022-12-25T03:28:33.785Z,71.30
2022-12-25T03:31:13.549Z,71.30
2022-12-25T03:34:21.345Z,71.40
2022-12-25T03:37:08.148Z,71.30
2022-12-25T03:40:02.291Z,71.50
2022-12-25T03:42:55.078Z,71.40
2022-12-25T03:45:47.797Z,71.50
2022-12-25T03:48:35.397Z,71.50
2022-12-25T03:51:28.681Z,71.60
2022-12-25T03:54:20.344Z,71.50
2022-12-25T03:57:06.424Z,71.40
2022-12-25T03:59:52.522Z,71.40
2022-12-25T04:02:38.892Z,71.40
2022-12-25T04:05:26.010Z,71.20
2022-12-25T04:08:15.683Z,71.20
2022-12-25T04:11:01.574Z,71.10
2022-12-25T04:13:47.435Z,71.20
2022-12-25T04:16:33.290Z,71.00
2022-12-25T04:19:19.388Z,71.30
2022-12-25T04:22:05.357Z,71.10
2022-12-25T04:24:52.587Z,71.30
2022-12-25T04:27:38.302Z,71.20
2022-12-25T04:30:26.065Z,71.30
2022-12-25T04:33:15.735Z,71.30
2022-12-25T04:36:05.661Z,71.40
2022-12-25T04:38:33.984Z,71.20
2022-12-25T04:41:04.536Z,71.20
2022-12-25T04:43:32.908Z,71.20
2022-12-25T04:46:03.456Z,71.20
2022-12-25T04:48:33.776Z,71.30
2022-12-25T04:51:12.354Z,71.10
2022-12-25T04:53:40.611Z,71.10
2022-12-25T04:56:10.440Z,71.20
2022-12-25T04:58:38.717Z,71.10
2022-12-25T05:01:07.355Z,71.00
2022-12-25T05:03:36.419Z,71.10
2022-12-25T05:06:07.500Z,71.20
2022-12-25T05:08:37.002Z,71.10
2022-12-25T05:11:10.924Z,71.10
2022-12-25T05:13:40.233Z,71.10
2022-12-25T05:16:10.401Z,71.10
2022-12-25T05:18:39.056Z,71.10
2022-12-25T05:21:11.228Z,71.10
2022-12-25T05:23:48.639Z,71.10
2022-12-25T05:26:22.002Z,71.10
2022-12-25T05:28:51.449Z,71.20
2022-12-25T05:31:20.233Z,71.10
2022-12-25T05:33:50.832Z,71.10
2022-12-25T05:36:20.055Z,71.20
2022-12-25T05:38:48.492Z,71.20
2022-12-25T05:41:18.165Z,71.20
2022-12-25T05:43:46.427Z,71.20
2022-12-25T05:46:15.164Z,71.20
2022-12-25T05:48:43.528Z,71.10
2022-12-25T05:51:13.239Z,71.00
2022-12-25T05:53:42.976Z,71.10
2022-12-25T05:56:11.285Z,71.00
2022-12-25T05:58:42.215Z,71.10
2022-12-25T06:01:16.429Z,71.20
2022-12-25T06:03:45.175Z,71.10
2022-12-25T06:06:14.527Z,71.00
2022-12-25T06:08:43.202Z,71.10
2022-12-25T06:11:13.576Z,71.10
2022-12-25T06:13:44.056Z,71.20
2022-12-25T06:16:13.708Z,71.10
2022-12-25T06:18:44.703Z,71.00
2022-12-25T06:21:15.297Z,71.10
2022-12-25T06:23:44.429Z,71.20
2022-12-25T06:26:14.850Z,71.00
2022-12-25T06:28:44.885Z,71.10
2022-12-25T06:31:16.763Z,71.10
2022-12-25T06:33:45.545Z,71.00
2022-12-25T06:36:15.603Z,71.10
2022-12-25T06:38:44.398Z,71.00
2022-12-25T06:41:14.796Z,71.10
2022-12-25T06:43:44.904Z,71.00
2022-12-25T06:46:13.789Z,71.00
2022-12-25T06:48:49.459Z,71.20
2022-12-25T06:51:19.144Z,71.20
2022-12-25T06:53:48.114Z,71.10
2022-12-25T06:56:18.815Z,71.10
2022-12-25T06:58:50.058Z,71.20
2022-12-25T07:01:20.727Z,71.10
2022-12-25T07:03:51.177Z,71.30
2022-12-25T07:06:19.835Z,71.30
2022-12-25T07:08:48.360Z,71.20
2022-12-25T07:11:16.877Z,71.30
2022-12-25T07:13:45.422Z,71.30
2022-12-25T07:16:15.659Z,71.30
2022-12-25T07:18:44.072Z,71.30
2022-12-25T07:21:14.307Z,71.30
2022-12-25T07:23:42.789Z,71.40
2022-12-25T07:26:12.895Z,71.50
2022-12-25T07:28:42.292Z,71.40
2022-12-25T07:31:13.536Z,71.50
2022-12-25T07:33:43.260Z,71.50
2022-12-25T07:36:13.149Z,71.40
2022-12-25T07:38:41.730Z,71.50
2022-12-25T07:41:11.510Z,71.70
2022-12-25T07:43:40.126Z,71.60
2022-12-25T07:46:08.986Z,71.50
2022-12-25T07:48:37.903Z,71.60
2022-12-25T07:51:11.257Z,71.70
2022-12-25T07:53:41.232Z,71.70
2022-12-25T07:56:12.532Z,71.70
2022-12-25T07:58:41.582Z,71.80
2022-12-25T08:01:13.615Z,71.80
2022-12-25T08:03:42.093Z,71.70
2022-12-25T08:06:12.814Z,71.90
2022-12-25T08:08:43.003Z,71.90
2022-12-25T08:11:11.667Z,72.10
2022-12-25T08:13:40.335Z,72.00
2022-12-25T08:16:11.001Z,72.00
2022-12-25T08:18:40.600Z,72.00
2022-12-25T08:21:11.116Z,72.00
2022-12-25T08:23:42.821Z,72.10
2022-12-25T08:26:13.582Z,72.10
2022-12-25T08:28:42.142Z,72.20
2022-12-25T08:31:13.252Z,72.30
2022-12-25T08:33:41.966Z,72.20
2022-12-25T08:36:12.059Z,72.30
2022-12-25T08:38:42.500Z,72.30
2022-12-25T08:41:12.809Z,72.30
2022-12-25T08:43:41.534Z,72.50
2022-12-25T08:46:10.156Z,72.50
2022-12-25T08:48:39.401Z,72.50
2022-12-25T08:51:12.161Z,72.50
2022-12-25T08:53:47.811Z,72.60
2022-12-25T08:56:17.547Z,72.70
2022-12-25T08:58:46.650Z,72.50
2022-12-25T09:01:15.653Z,72.70
2022-12-25T09:03:59.878Z,72.70
2022-12-25T09:06:28.919Z,72.90
2022-12-25T09:09:01.126Z,72.80
2022-12-25T09:11:32.153Z,72.80
2022-12-25T09:14:03.986Z,72.80
2022-12-25T09:16:53.752Z,72.80
2022-12-25T09:19:25.817Z,72.70
2022-12-25T09:21:57.098Z,72.80
2022-12-25T09:24:30.910Z,72.80
2022-12-25T09:27:01.961Z,72.80
2022-12-25T09:29:31.104Z,72.80
2022-12-25T09:32:01.456Z,72.70
2022-12-25T09:34:30.597Z,72.60
2022-12-25T09:36:59.670Z,72.70
2022-12-25T09:39:31.008Z,72.70
2022-12-25T09:42:09.967Z,72.80
2022-12-25T09:44:46.283Z,72.80
2022-12-25T09:47:17.514Z,72.60
2022-12-25T09:49:53.842Z,72.70
2022-12-25T09:52:52.225Z,72.80
2022-12-25T09:55:38.748Z,72.80
2022-12-25T09:58:18.633Z,72.80
2022-12-25T10:01:01.213Z,72.80
2022-12-25T10:03:47.654Z,72.60
2022-12-25T10:06:23.018Z,72.60
2022-12-25T10:09:28.396Z,72.70
2022-12-25T10:12:14.644Z,72.70
2022-12-25T10:14:51.709Z,72.50
2022-12-25T10:17:35.495Z,72.70
2022-12-25T10:20:14.226Z,72.60
2022-12-25T10:22:47.202Z,71.30
2022-12-25T10:25:18.736Z,71.30
2022-12-25T10:27:52.906Z,72.50
2022-12-25T10:30:33.036Z,72.40
2022-12-25T10:33:02.478Z,71.20
2022-12-25T10:35:33.183Z,72.40
2022-12-25T10:38:04.899Z,72.50
2022-12-25T10:40:48.856Z,72.30
2022-12-25T10:43:28.455Z,72.60
2022-12-25T10:46:00.513Z,72.60
2022-12-25T10:48:32.466Z,72.60
2022-12-25T10:51:01.581Z,72.50
2022-12-25T10:53:38.696Z,71.30
2022-12-25T10:56:09.276Z,71.40
2022-12-25T10:58:39.207Z,71.30
2022-12-25T11:01:09.122Z,71.50
2022-12-25T11:03:41.658Z,71.40
2022-12-25T11:06:27.160Z,71.50
2022-12-25T11:08:58.107Z,71.20
2022-12-25T11:11:31.182Z,71.20
2022-12-25T11:14:03.818Z,71.00
2022-12-25T11:16:37.868Z,71.10
2022-12-25T11:19:25.921Z,71.20
2022-12-25T11:21:56.592Z,71.20
2022-12-25T11:24:30.899Z,71.10
2022-12-25T11:27:01.874Z,71.10
2022-12-25T11:29:50.052Z,71.20
2022-12-25T11:32:23.817Z,71.20
2022-12-25T11:34:52.774Z,71.20
2022-12-25T11:37:25.579Z,71.20
2022-12-25T11:39:55.125Z,71.10
2022-12-25T11:42:28.339Z,71.10
2022-12-25T11:45:04.753Z,71.10
2022-12-25T11:47:43.126Z,71.10
2022-12-25T11:50:23.514Z,71.10
2022-12-25T11:52:54.265Z,71.10
2022-12-25T11:55:32.754Z,71.00
2022-12-25T11:58:07.658Z,70.80
2022-12-25T12:00:38.754Z,70.90
2022-12-25T12:03:18.201Z,70.90
2022-12-25T12:05:58.608Z,70.90
2022-12-25T12:08:29.877Z,70.80
2022-12-25T12:11:19.512Z,70.80
2022-12-25T12:14:08.011Z,70.90
2022-12-25T12:16:38.030Z,70.80
2022-12-25T12:19:13.945Z,70.90
2022-12-25T12:21:44.287Z,70.90
2022-12-25T12:24:17.584Z,70.70
2022-12-25T12:26:48.446Z,70.80
2022-12-25T12:29:27.017Z,70.70
2022-12-25T12:32:01.441Z,65.70
2022-12-25T12:34:34.114Z,70.70
2022-12-25T12:37:05.793Z,65.60
2022-12-25T12:39:37.737Z,65.70
2022-12-25T12:42:15.024Z,65.60
2022-12-25T12:44:50.034Z,65.20
2022-12-25T12:47:34.079Z,65.70
2022-12-25T12:50:03.420Z,65.50
2022-12-25T12:52:35.213Z,65.60
2022-12-25T12:55:07.192Z,65.80
2022-12-25T12:57:40.132Z,65.60
2022-12-25T13:00:18.138Z,65.70
2022-12-25T13:03:44.854Z,65.60
2022-12-25T13:06:17.649Z,65.70
2022-12-25T13:08:59.438Z,65.80
2022-12-25T13:11:30.789Z,65.60
2022-12-25T13:14:02.498Z,70.70
2022-12-25T13:16:34.606Z,70.70
2022-12-25T13:19:08.952Z,65.90
2022-12-25T13:21:37.458Z,65.70
2022-12-25T13:24:09.033Z,70.70
2022-12-25T13:26:39.219Z,66.00
2022-12-25T13:29:11.428Z,70.70
2022-12-25T13:31:42.441Z,66.00
2022-12-25T13:34:25.434Z,66.00
2022-12-25T13:36:55.188Z,70.70
2022-12-25T13:39:25.049Z,65.80
2022-12-25T13:42:06.835Z,70.70
2022-12-25T13:44:44.064Z,65.90
2022-12-25T13:47:22.641Z,65.90
2022-12-25T13:49:53.725Z,70.70
2022-12-25T13:52:24.298Z,65.90
2022-12-25T13:55:00.780Z,70.80
2022-12-25T13:57:35.597Z,65.90
2022-12-25T14:00:07.179Z,70.70
2022-12-25T14:02:39.044Z,70.70
2022-12-25T14:08:04.912Z,70.70
2022-12-25T14:10:36.252Z,65.90
2022-12-25T14:13:08.278Z,70.70
2022-12-25T14:15:37.835Z,70.70
2022-12-25T14:18:06.587Z,70.70
2022-12-25T14:20:38.598Z,70.70
2022-12-25T14:23:09.055Z,70.70
2022-12-25T14:25:43.878Z,70.70
2022-12-25T14:28:20.376Z,70.70
2022-12-25T14:30:49.263Z,66.00
2022-12-25T14:33:20.735Z,70.80
2022-12-25T14:35:50.392Z,70.70
2022-12-25T14:38:27.711Z,65.90
2022-12-25T14:41:03.974Z,65.90
2022-12-25T14:43:34.673Z,70.80
2022-12-25T14:46:06.182Z,70.80
2022-12-25T14:48:34.886Z,66.00
2022-12-25T14:51:05.272Z,65.80
2022-12-25T14:53:39.285Z,66.00
2022-12-25T14:56:09.824Z,70.70
2022-12-25T14:58:42.672Z,70.80
2022-12-25T15:01:23.080Z,70.70
2022-12-25T15:03:52.513Z,70.90
2022-12-25T15:06:22.460Z,70.70
2022-12-25T15:08:59.877Z,70.80
2022-12-25T15:11:28.907Z,70.70
2022-12-25T15:13:57.300Z,65.90
2022-12-25T15:16:28.368Z,70.80
2022-12-25T15:18:57.213Z,70.80
2022-12-25T15:21:28.147Z,70.70
2022-12-25T15:23:58.957Z,70.90
2022-12-25T15:26:29.304Z,70.80
2022-12-25T15:28:57.539Z,70.90
2022-12-25T15:31:28.256Z,70.80
2022-12-25T15:33:57.996Z,70.90
2022-12-25T15:36:27.434Z,70.80
2022-12-25T15:38:55.884Z,70.90
2022-12-25T15:41:46.606Z,70.90
2022-12-25T15:44:15.429Z,70.80
2022-12-25T15:46:44.096Z,70.80
2022-12-25T15:49:13.914Z,71.00
2022-12-25T15:51:43.291Z,70.90
2022-12-25T15:54:13.486Z,70.90
2022-12-25T15:56:47.322Z,71.00
2022-12-25T15:59:17.214Z,72.20
2022-12-25T16:01:48.192Z,71.00
2022-12-25T16:04:16.638Z,71.00
2022-12-25T16:06:44.919Z,71.10
2022-12-25T16:09:14.048Z,72.30
2022-12-25T16:11:44.554Z,71.00
2022-12-25T16:14:13.164Z,71.00
2022-12-25T16:16:41.779Z,72.20
2022-12-25T16:19:10.072Z,71.00
2022-12-25T16:21:40.543Z,71.10
2022-12-25T16:24:10.042Z,70.90
2022-12-25T16:26:38.209Z,72.30
2022-12-25T16:29:08.036Z,72.40
2022-12-25T16:31:37.255Z,72.20
2022-12-25T16:34:07.025Z,72.30
2022-12-25T16:36:37.448Z,70.90
2022-12-25T16:39:06.614Z,71.00
2022-12-25T16:41:35.117Z,71.00
2022-12-25T16:44:09.393Z,71.00
2022-12-25T16:46:38.793Z,70.80
2022-12-25T16:49:07.232Z,70.80
2022-12-25T16:51:35.746Z,71.00
2022-12-25T16:54:03.946Z,70.90
2022-12-25T16:56:32.559Z,72.20
2022-12-25T16:59:01.079Z,72.30
2022-12-25T17:01:30.919Z,71.00
2022-12-25T17:04:01.429Z,72.20
2022-12-25T17:06:30.620Z,70.90
2022-12-25T17:09:02.180Z,70.90
2022-12-25T17:11:30.884Z,70.90
2022-12-25T17:14:02.026Z,72.20
2022-12-25T17:16:34.261Z,71.00
2022-12-25T17:19:04.727Z,72.20
2022-12-25T17:21:34.285Z,71.00
2022-12-25T17:24:04.154Z,71.00
2022-12-25T17:26:33.403Z,70.80
2022-12-25T17:29:01.595Z,71.00
2022-12-25T17:31:31.562Z,70.90
2022-12-25T17:34:01.835Z,72.10
2022-12-25T17:36:30.680Z,71.00
2022-12-25T17:39:00.652Z,70.90
2022-12-25T17:41:29.147Z,70.80
2022-12-25T17:43:57.330Z,70.90
2022-12-25T17:46:28.334Z,70.90
2022-12-25T17:49:00.790Z,70.90
2022-12-25T17:51:30.734Z,70.90
2022-12-25T17:54:03.023Z,70.70
2022-12-25T17:56:32.490Z,70.90
2022-12-25T17:59:06.463Z,70.90
2022-12-25T18:01:35.850Z,70.70
2022-12-25T18:04:07.270Z,70.80
2022-12-25T18:06:37.214Z,70.90
2022-12-25T18:09:07.044Z,70.80
2022-12-25T18:11:38.633Z,70.70
2022-12-25T18:14:08.584Z,70.80
2022-12-25T18:16:39.776Z,70.90
2022-12-25T18:19:09.814Z,70.70
2022-12-25T18:21:38.119Z,70.90
2022-12-25T18:24:08.120Z,70.80
2022-12-25T18:26:36.970Z,70.90
2022-12-25T18:29:05.387Z,70.70
2022-12-25T18:31:34.092Z,70.90
2022-12-25T18:34:02.799Z,70.80
2022-12-25T18:36:32.587Z,70.70
2022-12-25T18:39:00.852Z,70.70
2022-12-25T18:41:30.349Z,70.80
2022-12-25T18:44:00.558Z,70.80
2022-12-25T18:46:29.219Z,70.70
2022-12-25T18:48:58.233Z,70.70
2022-12-25T18:51:31.388Z,70.80
2022-12-25T18:54:06.421Z,70.80
2022-12-25T18:56:34.617Z,70.90
2022-12-25T18:59:03.146Z,70.80
2022-12-25T19:01:31.787Z,70.80
2022-12-25T19:04:05.027Z,70.70
2022-12-25T19:06:34.620Z,70.80
2022-12-25T19:09:09.145Z,70.70
2022-12-25T19:11:45.897Z,70.90
2022-12-25T19:14:15.404Z,65.90
2022-12-25T19:16:43.797Z,70.70
2022-12-25T19:19:12.162Z,70.80
2022-12-25T19:21:40.480Z,70.70
2022-12-25T19:24:08.958Z,70.70
2022-12-25T19:26:37.831Z,70.80
2022-12-25T19:29:07.323Z,70.70
2022-12-25T19:31:37.202Z,70.70
2022-12-25T19:34:06.618Z,70.60
2022-12-25T19:36:35.626Z,70.90
2022-12-25T19:39:04.759Z,70.80
2022-12-25T19:41:33.174Z,70.70
2022-12-25T19:44:01.604Z,70.80
2022-12-25T19:46:33.406Z,70.70
2022-12-25T19:49:04.449Z,65.90
2022-12-25T19:51:34.544Z,70.70
2022-12-25T19:54:04.570Z,65.80
2022-12-25T19:56:34.000Z,65.90
2022-12-25T19:59:02.413Z,70.70
2022-12-25T20:01:33.548Z,65.90
2022-12-25T20:04:01.935Z,65.90
2022-12-25T20:06:33.065Z,70.70
2022-12-25T20:09:03.321Z,70.60
2022-12-25T20:11:32.889Z,70.70
2022-12-25T20:14:01.128Z,70.70
2022-12-25T20:16:29.771Z,66.00
2022-12-25T20:19:00.151Z,65.90
2022-12-25T20:21:29.784Z,65.90
2022-12-25T20:23:58.839Z,65.90
2022-12-25T20:26:29.909Z,65.90
2022-12-25T20:28:59.195Z,70.70
2022-12-25T20:31:29.626Z,65.50
2022-12-25T20:34:01.320Z,65.70
2022-12-25T20:36:36.302Z,65.80
2022-12-25T20:39:08.691Z,65.60
2022-12-25T20:41:37.095Z,65.90
2022-12-25T20:44:06.536Z,65.60
2022-12-25T20:46:35.044Z,66.00
2022-12-25T20:49:05.069Z,65.70
2022-12-25T20:51:34.007Z,65.40
2022-12-25T20:54:07.208Z,65.30
2022-12-25T20:56:36.076Z,65.60
2022-12-25T20:59:04.287Z,65.30
2022-12-25T21:01:32.758Z,65.60
2022-12-25T21:04:01.264Z,65.50
2022-12-25T21:06:30.879Z,65.20
2022-12-25T21:09:00.129Z,65.50
2022-12-25T21:11:30.445Z,65.40
2022-12-25T21:13:59.131Z,65.50
2022-12-25T21:16:28.730Z,65.40
2022-12-25T21:18:57.025Z,65.20
2022-12-25T21:21:25.590Z,65.30
2022-12-25T21:23:56.838Z,65.00
2022-12-25T21:26:27.326Z,65.30
2022-12-25T21:28:57.286Z,65.80
2022-12-25T21:31:26.352Z,65.10
2022-12-25T21:33:55.108Z,65.00
2022-12-25T21:36:27.060Z,65.00
2022-12-25T21:38:58.660Z,65.20
2022-12-25T21:41:28.174Z,65.20
2022-12-25T21:43:56.901Z,65.20
2022-12-25T21:46:26.069Z,65.30
2022-12-25T21:48:54.979Z,65.00
2022-12-25T21:51:43.363Z,65.10
2022-12-25T21:54:14.382Z,64.90
2022-12-25T21:56:45.568Z,65.30
2022-12-25T21:59:16.060Z,65.20
2022-12-25T22:01:45.428Z,65.60
2022-12-25T22:04:15.874Z,65.30
2022-12-25T22:07:02.513Z,65.40
2022-12-25T22:09:32.660Z,65.70
2022-12-25T22:12:18.568Z,65.30
2022-12-25T22:14:55.841Z,65.30
2022-12-25T22:17:44.914Z,65.50
2022-12-25T22:20:15.807Z,65.20
2022-12-25T22:22:44.854Z,65.50
2022-12-25T22:25:15.606Z,65.10
2022-12-25T22:27:45.388Z,65.60
2022-12-25T22:30:15.724Z,65.60
2022-12-25T22:32:44.385Z,65.70
2022-12-25T22:35:13.295Z,65.50
2022-12-25T22:37:42.538Z,65.70
2022-12-25T22:40:12.770Z,65.70
2022-12-25T22:42:42.793Z,65.90
2022-12-25T22:45:12.622Z,65.70
2022-12-25T22:47:41.694Z,70.70
2022-12-25T22:50:11.591Z,65.80
2022-12-25T22:52:39.850Z,65.90
2022-12-25T22:55:10.226Z,65.90
2022-12-25T22:57:38.556Z,70.70
2022-12-25T23:00:09.971Z,65.70
2022-12-25T23:02:38.562Z,65.60
2022-12-25T23:05:08.087Z,65.90
2022-12-25T23:07:36.689Z,65.90
2022-12-25T23:10:06.663Z,65.90
2022-12-25T23:12:52.790Z,65.70
2022-12-25T23:15:23.128Z,70.70
2022-12-25T23:18:08.993Z,65.90
2022-12-25T23:21:04.166Z,70.80
2022-12-25T23:23:50.280Z,70.80
2022-12-25T23:26:20.985Z,65.90
2022-12-25T23:29:06.552Z,70.70
2022-12-25T23:31:39.757Z,72.10
2022-12-25T23:34:08.476Z,72.10
2022-12-25T23:40:37.156Z,70.90
2022-12-25T23:43:05.536Z,70.80
2022-12-25T23:45:33.720Z,71.00
2022-12-25T23:48:03.601Z,71.00
2022-12-25T23:50:31.781Z,70.90
2022-12-25T23:53:00.199Z,71.00
2022-12-25T23:55:28.438Z,71.00
2022-12-25T23:57:56.861Z,71.00
